Time;durP1;ratioP1;P1;durP2;ratioP2;P2;SDS_P1;SDS_P2;PMS_P1;PMS_P2;Temp;Humidity;BMP_temperature;BMP_pressure;BME280_temperature;BME280_humidity;BME280_pressure;Samples;Min_cycle;Max_cycle;Signal;HPM_P1;HPM_P2
2022/10/02 00:01:22;;;;;;;15.43;8.45;;;15.60;49.40;;;;;;5031593;28;20216;-42
2022/10/02 00:03:48;;;;;;;10.63;8.43;;;15.60;49.30;;;;;;5034717;28;20271;-41
2022/10/02 00:06:23;;;;;;;6.57;5.28;;;15.60;49.40;;;;;;5034919;28;20185;-42
2022/10/02 00:08:55;;;;;;;13.30;6.53;;;15.60;49.40;;;;;;5035160;28;20173;-42
2022/10/02 00:11:27;;;;;;;7.22;4.85;;;15.50;49.40;;;;;;5035596;28;20159;-42
2022/10/02 00:13:57;;;;;;;8.65;3.92;;;15.50;49.40;;;;;;5035151;28;20210;-42
2022/10/02 00:16:26;;;;;;;5.45;3.00;;;15.40;49.40;;;;;;5034653;28;20174;-42
2022/10/02 00:18:54;;;;;;;4.80;3.50;;;15.50;49.40;;;;;;5034937;28;20264;-42
2022/10/02 00:22:08;;;;;;;5.10;3.28;;;15.40;49.40;;;;;;5035309;28;20174;-42
2022/10/02 00:24:58;;;;;;;15.55;8.65;;;15.40;49.20;;;;;;4993098;28;20252;-42
2022/10/02 00:27:49;;;;;;;11.70;8.23;;;15.40;49.50;;;;;;4992402;28;20560;-42
2022/10/02 00:30:17;;;;;;;6.40;4.00;;;15.40;49.50;;;;;;4993133;28;20591;-42
2022/10/02 00:33:03;;;;;;;8.95;4.85;;;15.30;49.60;;;;;;4993040;28;20179;-42
2022/10/02 00:35:37;;;;;;;7.93;6.10;;;15.40;49.60;;;;;;4992923;28;20199;-42
2022/10/02 00:38:14;;;;;;;5.65;3.80;;;15.30;49.50;;;;;;4993008;28;20178;-42
2022/10/02 00:41:00;;;;;;;4.03;3.53;;;15.30;49.80;;;;;;4992979;28;20194;-42
2022/10/02 00:43:47;;;;;;;7.00;3.88;;;15.30;50.00;;;;;;4992743;28;20221;-42
2022/10/02 00:46:28;;;;;;;5.75;3.45;;;15.30;50.10;;;;;;4992470;28;20160;-42
2022/10/02 00:49:01;;;;;;;4.55;2.60;;;15.30;50.10;;;;;;4992771;28;20179;-42
2022/10/02 00:51:38;;;;;;;8.65;3.20;;;15.30;50.20;;;;;;4976457;28;20323;-42
2022/10/02 00:54:10;;;;;;;6.65;3.35;;;15.30;50.20;;;;;;4994700;28;20199;-42
2022/10/02 00:56:45;;;;;;;7.70;3.28;;;15.40;50.20;;;;;;5033983;28;20632;-42
2022/10/02 00:59:22;;;;;;;3.97;2.60;;;15.40;50.10;;;;;;5034271;28;20664;-42
2022/10/02 01:01:50;;;;;;;4.45;2.00;;;15.40;50.70;;;;;;5034358;28;20162;-42
2022/10/02 01:04:31;;;;;;;6.38;2.70;;;15.50;50.10;;;;;;5032925;28;20178;-42
2022/10/02 01:06:57;;;;;;;6.93;2.83;;;15.50;49.90;;;;;;5032404;28;20174;-42
2022/10/02 01:09:24;;;;;;;6.35;2.30;;;15.40;49.70;;;;;;5034133;28;20177;-41
2022/10/02 01:11:51;;;;;;;6.32;3.00;;;15.40;49.90;;;;;;5032668;28;20178;-41
2022/10/02 01:14:17;;;;;;;7.22;2.10;;;15.40;49.90;;;;;;5032690;28;20557;-41
2022/10/02 01:16:43;;;;;;;5.80;1.83;;;15.40;50.00;;;;;;5033516;28;20172;-42
2022/10/02 01:19:36;;;;;;;3.83;2.40;;;15.30;50.00;;;;;;5033950;28;20692;-41
2022/10/02 01:22:18;;;;;;;3.42;2.55;;;15.40;50.20;;;;;;5033808;28;20189;-42
2022/10/02 01:24:57;;;;;;;5.07;2.33;;;15.40;50.30;;;;;;5033770;28;20190;-42
2022/10/02 01:27:23;;;;;;;8.13;2.25;;;15.40;50.30;;;;;;5033363;28;20629;-42
2022/10/02 01:29:55;;;;;;;9.13;2.30;;;15.40;50.20;;;;;;5033977;28;20177;-41
2022/10/02 01:32:28;;;;;;;5.72;2.25;;;15.40;50.00;;;;;;5033524;28;20245;-42
2022/10/02 01:34:55;;;;;;;3.25;1.75;;;15.50;50.00;;;;;;5032237;28;20201;-42
2022/10/02 01:37:25;;;;;;;4.45;1.90;;;15.50;49.90;;;;;;5033420;28;20189;-42
2022/10/02 01:39:51;;;;;;;3.80;2.20;;;15.50;49.80;;;;;;5033544;28;20165;-42
2022/10/02 01:42:18;;;;;;;3.38;2.35;;;15.50;49.80;;;;;;5033565;28;20206;-42
2022/10/02 01:44:44;;;;;;;4.75;2.00;;;15.50;49.80;;;;;;5033370;28;20197;-42
2022/10/02 01:47:18;;;;;;;4.15;2.03;;;15.50;49.70;;;;;;5032840;28;20232;-42
2022/10/02 01:49:59;;;;;;;4.82;2.17;;;15.40;49.50;;;;;;5033641;28;20170;-41
2022/10/02 01:52:42;;;;;;;11.63;2.53;;;15.50;49.60;;;;;;5033307;28;20668;-42
2022/10/02 01:55:18;;;;;;;4.25;2.08;;;15.40;49.50;;;;;;5032018;28;20214;-42
2022/10/02 01:57:54;;;;;;;2.95;1.77;;;15.40;49.50;;;;;;5032805;28;20215;-42
2022/10/02 02:00:24;;;;;;;5.60;3.47;;;15.40;49.40;;;;;;5033263;28;20165;-42
2022/10/02 02:03:05;;;;;;;7.95;2.75;;;15.40;49.50;;;;;;5033058;28;20208;-42
2022/10/02 02:05:58;;;;;;;3.20;1.80;;;15.40;49.40;;;;;;5032677;28;20573;-42
2022/10/02 02:08:36;;;;;;;4.75;2.47;;;15.30;49.30;;;;;;5033210;28;20185;-42
2022/10/02 02:11:17;;;;;;;4.22;2.10;;;15.30;49.30;;;;;;5032929;28;20177;-42
2022/10/02 02:14:07;;;;;;;3.20;1.92;;;15.30;49.40;;;;;;5032792;28;20909;-42
2022/10/02 02:16:50;;;;;;;3.05;2.10;;;15.20;49.50;;;;;;5032274;28;20201;-42
2022/10/02 02:19:28;;;;;;;4.30;1.83;;;15.20;49.50;;;;;;5032842;28;20166;-42
2022/10/02 02:22:02;;;;;;;4.90;2.25;;;15.20;49.50;;;;;;5032666;28;20580;-42
2022/10/02 02:24:41;;;;;;;2.47;1.85;;;15.20;49.60;;;;;;5032500;28;20194;-42
2022/10/02 02:27:12;;;;;;;4.93;2.60;;;15.20;49.50;;;;;;5032232;28;20199;-41
2022/10/02 02:29:42;;;;;;;2.65;1.83;;;15.20;49.40;;;;;;5032591;28;20634;-42
2022/10/02 02:32:12;;;;;;;5.82;3.60;;;15.20;49.40;;;;;;5032840;28;20201;-41
2022/10/02 02:34:45;;;;;;;3.47;1.95;;;15.10;49.40;;;;;;5032473;28;20205;-42
2022/10/02 02:37:17;;;;;;;3.75;2.20;;;15.10;49.50;;;;;;5031995;28;20316;-42
2022/10/02 02:39:53;;;;;;;4.05;2.13;;;15.10;49.50;;;;;;5032710;28;20223;-42
2022/10/02 02:42:22;;;;;;;7.68;2.67;;;15.10;49.50;;;;;;5032345;28;20736;-42
2022/10/02 02:44:56;;;;;;;3.95;2.10;;;15.00;49.50;;;;;;5032269;28;20182;-42
2022/10/02 02:47:31;;;;;;;5.25;2.85;;;15.00;49.40;;;;;;5032055;28;20176;-42
2022/10/02 02:50:01;;;;;;;3.72;1.70;;;15.00;49.50;;;;;;5032364;28;20164;-41
2022/10/02 02:52:56;;;;;;;3.75;2.50;;;15.00;49.50;;;;;;5032331;28;20240;-41
2022/10/02 02:55:34;;;;;;;4.60;2.53;;;15.10;49.60;;;;;;5026457;28;20271;-41
2022/10/02 02:58:14;;;;;;;7.78;2.88;;;15.00;49.60;;;;;;5032149;28;20165;-41
2022/10/02 03:00:39;;;;;;;9.70;3.00;;;15.00;49.70;;;;;;5032382;28;20173;-42
2022/10/02 03:03:05;;;;;;;14.23;3.00;;;15.00;49.80;;;;;;5032238;28;20197;-42
2022/10/02 03:05:34;;;;;;;7.45;2.95;;;15.00;49.80;;;;;;5032002;28;20436;-41
2022/10/02 03:08:04;;;;;;;4.47;2.47;;;15.00;49.90;;;;;;5030861;28;20267;-42
2022/10/02 03:10:32;;;;;;;5.10;2.20;;;15.10;50.00;;;;;;5032232;28;20515;-42
2022/10/02 03:13:01;;;;;;;4.20;2.22;;;15.10;50.00;;;;;;5031934;28;20760;-41
2022/10/02 03:16:06;;;;;;;5.80;2.47;;;15.10;50.00;;;;;;5031748;28;20210;-42
2022/10/02 03:18:40;;;;;;;9.27;2.65;;;15.10;50.00;;;;;;5029823;28;20182;-42
2022/10/02 03:21:11;;;;;;;4.18;2.75;;;15.10;50.00;;;;;;5031978;28;20166;-42
2022/10/02 03:24:09;;;;;;;6.45;3.67;;;15.10;50.20;;;;;;5031816;28;20190;-42
2022/10/02 03:26:54;;;;;;;4.60;3.17;;;15.10;50.10;;;;;;5027748;28;20216;-42
2022/10/02 03:29:27;;;;;;;3.60;2.20;;;15.20;50.10;;;;;;5031847;28;20154;-42
2022/10/02 03:31:54;;;;;;;6.45;3.30;;;15.10;50.10;;;;;;5031908;28;20155;-42
2022/10/02 03:34:20;;;;;;;3.50;2.50;;;15.10;50.20;;;;;;5030520;28;20201;-42
2022/10/02 03:36:46;;;;;;;3.60;2.42;;;15.20;50.20;;;;;;5031814;28;20192;-42
2022/10/02 03:39:13;;;;;;;6.30;2.85;;;15.20;50.20;;;;;;5035882;28;20177;-42
2022/10/02 03:41:38;;;;;;;6.15;2.50;;;15.20;50.10;;;;;;5035841;28;20173;-42
2022/10/02 03:44:04;;;;;;;3.97;3.23;;;15.20;50.10;;;;;;5035587;28;20210;-41
2022/10/02 03:46:30;;;;;;;10.20;3.20;;;15.20;50.20;;;;;;5035211;28;20170;-41
2022/10/02 03:48:56;;;;;;;4.50;3.00;;;15.30;50.10;;;;;;5035617;28;20429;-42
2022/10/02 03:51:22;;;;;;;3.20;2.40;;;15.20;50.10;;;;;;5035689;28;20243;-42
2022/10/02 03:53:49;;;;;;;8.02;2.60;;;15.20;50.10;;;;;;5035657;28;20198;-42
2022/10/02 03:56:39;;;;;;;7.15;2.40;;;15.20;50.00;;;;;;5034958;28;20214;-41
2022/10/02 03:59:13;;;;;;;3.58;2.30;;;15.20;50.00;;;;;;5035425;28;20173;-42
2022/10/02 04:01:43;;;;;;;5.80;2.42;;;15.20;50.00;;;;;;5035387;28;20165;-42
2022/10/02 04:04:17;;;;;;;4.35;2.60;;;15.20;49.80;;;;;;5035173;28;20252;-42
2022/10/02 04:06:52;;;;;;;5.13;2.75;;;15.20;49.80;;;;;;5034759;28;20173;-42
2022/10/02 04:09:26;;;;;;;4.88;2.63;;;15.10;50.30;;;;;;5035011;28;20172;-42
2022/10/02 04:12:00;;;;;;;4.90;2.55;;;15.10;49.80;;;;;;5035275;28;20592;-42
2022/10/02 04:15:05;;;;;;;5.40;2.05;;;15.10;49.60;;;;;;5034965;28;20204;-42
2022/10/02 04:18:03;;;;;;;4.07;2.50;;;15.00;49.30;;;;;;5034779;28;20252;-42
2022/10/02 04:20:52;;;;;;;12.50;2.97;;;15.00;49.40;;;;;;5026814;28;20182;-42
2022/10/02 04:23:27;;;;;;;7.85;2.50;;;14.90;49.30;;;;;;5034928;28;20292;-42
2022/10/02 04:26:00;;;;;;;3.90;2.40;;;14.80;49.40;;;;;;5034618;28;20208;-41
2022/10/02 04:28:33;;;;;;;3.47;2.28;;;14.80;49.40;;;;;;5034808;28;20165;-42
2022/10/02 04:31:01;;;;;;;4.20;2.20;;;14.70;49.60;;;;;;5034846;28;20174;-42
2022/10/02 04:33:27;;;;;;;4.55;1.98;;;14.70;49.60;;;;;;5033430;28;20178;-42
2022/10/02 04:36:28;;;;;;;5.00;2.95;;;14.60;49.30;;;;;;5034243;28;20178;-42
2022/10/02 04:39:20;;;;;;;5.05;2.80;;;14.60;49.30;;;;;;5018716;28;20804;-42
2022/10/02 04:41:46;;;;;;;5.50;2.33;;;14.50;49.30;;;;;;5018786;28;20281;-42
2022/10/02 04:44:24;;;;;;;4.37;2.73;;;14.40;49.40;;;;;;5034580;28;20689;-42
2022/10/02 04:47:14;;;;;;;6.05;3.28;;;14.40;49.70;;;;;;5034111;28;20146;-42
2022/10/02 04:49:58;;;;;;;4.45;3.00;;;14.40;49.80;;;;;;5034292;28;20170;-42
2022/10/02 04:52:36;;;;;;;11.57;3.08;;;14.40;49.90;;;;;;5034734;28;20166;-41
2022/10/02 04:55:20;;;;;;;7.70;2.92;;;14.40;50.10;;;;;;5034340;28;20217;-42
2022/10/02 04:57:58;;;;;;;3.70;2.40;;;14.50;50.20;;;;;;5033890;28;20589;-41
2022/10/02 05:00:27;;;;;;;3.75;2.05;;;14.50;50.10;;;;;;5034588;28;20178;-42
2022/10/02 05:03:05;;;;;;;3.25;2.53;;;14.50;50.00;;;;;;5034179;28;20284;-41
2022/10/02 05:05:43;;;;;;;4.38;2.92;;;14.60;50.00;;;;;;5033881;28;20186;-42
2022/10/02 05:08:34;;;;;;;10.32;3.17;;;14.60;49.90;;;;;;5034460;28;20252;-41
2022/10/02 05:11:14;;;;;;;6.25;2.42;;;14.60;49.80;;;;;;5032972;28;20255;-42
2022/10/02 05:14:13;;;;;;;7.28;3.80;;;14.60;49.90;;;;;;5033812;28;20170;-41
2022/10/02 05:16:58;;;;;;;3.40;1.85;;;14.60;49.50;;;;;;5033740;28;20197;-41
2022/10/02 05:19:45;;;;;;;2.30;1.77;;;14.60;49.60;;;;;;5034199;28;20182;-41
2022/10/02 05:22:17;;;;;;;6.65;2.38;;;14.60;49.70;;;;;;5034137;28;20277;-41
2022/10/02 05:24:53;;;;;;;4.57;2.70;;;14.60;50.00;;;;;;5033823;28;20193;-41
2022/10/02 05:27:33;;;;;;;4.00;2.42;;;14.60;49.80;;;;;;5033305;28;20654;-42
2022/10/02 05:30:13;;;;;;;9.65;2.65;;;14.60;49.70;;;;;;5033769;28;20185;-42
2022/10/02 05:32:55;;;;;;;5.47;2.90;;;14.60;49.70;;;;;;5033699;28;20288;-42
2022/10/02 05:35:38;;;;;;;3.58;2.20;;;14.70;49.90;;;;;;5033608;28;20247;-42
2022/10/02 05:38:37;;;;;;;7.13;2.55;;;14.70;50.00;;;;;;5033773;28;20158;-42
2022/10/02 05:41:15;;;;;;;8.00;2.50;;;14.70;50.00;;;;;;5033534;28;20170;-42
2022/10/02 05:44:12;;;;;;;2.58;2.38;;;14.70;50.00;;;;;;5033375;28;20228;-42
2022/10/02 05:46:48;;;;;;;8.02;2.10;;;14.80;50.00;;;;;;5032424;28;20181;-42
2022/10/02 05:49:19;;;;;;;5.10;2.55;;;14.80;50.00;;;;;;5033364;28;20169;-42
2022/10/02 05:52:14;;;;;;;5.53;2.78;;;14.90;50.20;;;;;;5033380;28;20257;-42
2022/10/02 05:54:49;;;;;;;10.60;2.83;;;15.00;50.20;;;;;;5032106;28;20539;-42
2022/10/02 05:57:20;;;;;;;4.53;3.03;;;15.00;50.20;;;;;;5032611;28;20177;-42
2022/10/02 06:00:19;;;;;;;3.88;3.05;;;15.00;50.30;;;;;;5032601;28;20261;-41
2022/10/02 06:02:48;;;;;;;6.25;2.50;;;15.20;50.40;;;;;;5031739;28;20744;-41
2022/10/02 06:05:56;;;;;;;5.25;2.58;;;15.20;50.40;;;;;;5032948;28;20190;-42
2022/10/02 06:08:47;;;;;;;6.50;3.55;;;15.30;50.40;;;;;;5032987;28;20224;-42
2022/10/02 06:11:26;;;;;;;4.93;3.40;;;15.40;50.40;;;;;;5032575;28;20201;-42
2022/10/02 06:14:05;;;;;;;7.30;3.28;;;15.40;50.30;;;;;;5032677;28;20284;-42
2022/10/02 06:17:00;;;;;;;8.95;3.13;;;15.50;50.30;;;;;;5032432;28;20510;-42
2022/10/02 06:19:51;;;;;;;3.10;2.90;;;15.60;50.20;;;;;;5032808;28;20596;-42
2022/10/02 06:22:27;;;;;;;11.70;3.25;;;15.60;50.20;;;;;;5032644;28;20181;-42
2022/10/02 06:25:16;;;;;;;6.78;3.97;;;15.60;50.20;;;;;;5032604;28;20229;-42
2022/10/02 06:27:52;;;;;;;11.73;3.30;;;15.70;50.40;;;;;;5032089;28;20173;-42
2022/10/02 06:30:18;;;;;;;5.47;3.53;;;15.70;50.30;;;;;;5032717;28;20173;-42
2022/10/02 06:33:07;;;;;;;5.80;3.03;;;15.80;50.40;;;;;;5032540;28;20181;-42
2022/10/02 06:35:42;;;;;;;5.85;3.35;;;16.00;50.30;;;;;;5031553;28;20202;-42
2022/10/02 06:38:24;;;;;;;3.03;2.70;;;16.10;50.40;;;;;;5032611;28;20188;-42
2022/10/02 06:40:50;;;;;;;5.72;2.95;;;16.30;50.40;;;;;;5032433;28;20166;-41
2022/10/02 06:43:30;;;;;;;10.38;3.65;;;16.30;50.30;;;;;;5032240;28;20558;-42
2022/10/02 06:46:16;;;;;;;5.15;3.00;;;16.50;50.20;;;;;;5032014;28;20538;-42
2022/10/02 06:48:57;;;;;;;11.57;3.10;;;16.60;50.10;;;;;;5032673;28;20169;-42
2022/10/02 06:51:41;;;;;;;7.60;3.80;;;16.70;49.90;;;;;;5032110;28;20695;-42
2022/10/02 06:54:28;;;;;;;5.20;2.60;;;16.80;49.40;;;;;;5032138;28;20190;-42
2022/10/02 06:57:14;;;;;;;7.20;3.45;;;16.90;49.50;;;;;;5031809;28;20166;-42
2022/10/02 07:00:15;;;;;;;9.95;3.45;;;17.00;49.70;;;;;;5032098;28;20604;-42
2022/10/02 07:03:02;;;;;;;7.38;3.45;;;17.20;49.50;;;;;;5032070;28;20634;-41
2022/10/02 07:06:07;;;;;;;5.68;3.50;;;17.30;49.40;;;;;;5032330;28;20205;-42
2022/10/02 07:08:52;;;;;;;9.30;3.08;;;17.30;48.90;;;;;;5032153;28;20170;-42
2022/10/02 07:11:42;;;;;;;7.30;3.22;;;17.30;48.70;;;;;;5031483;28;20565;-42
2022/10/02 07:14:07;;;;;;;6.93;3.83;;;17.40;48.60;;;;;;5031849;28;20260;-42
2022/10/02 07:17:12;;;;;;;6.90;3.53;;;17.50;48.70;;;;;;5031612;28;20180;-42
2022/10/02 07:19:50;;;;;;;10.13;4.85;;;17.60;48.70;;;;;;5032269;28;20165;-42
2022/10/02 07:22:42;;;;;;;4.60;3.15;;;17.80;48.90;;;;;;5031828;28;20216;-42
2022/10/02 07:25:14;;;;;;;4.57;2.83;;;17.90;49.70;;;;;;5032163;28;20549;-42
2022/10/02 07:27:51;;;;;;;5.53;3.25;;;18.00;48.20;;;;;;5031843;28;20206;-42
2022/10/02 07:30:17;;;;;;;5.60;3.70;;;18.10;47.90;;;;;;5032190;28;20588;-42
2022/10/02 07:33:00;;;;;;;8.40;3.57;;;18.20;48.20;;;;;;5032121;28;20637;-42
2022/10/02 07:35:37;;;;;;;6.90;2.95;;;18.30;48.20;;;;;;5031745;28;20417;-41
2022/10/02 07:38:42;;;;;;;6.55;3.38;;;18.40;48.00;;;;;;5031813;28;20177;-43
2022/10/02 07:41:28;;;;;;;6.60;3.80;;;18.50;47.60;;;;;;5031882;28;20261;-43
2022/10/02 07:43:59;;;;;;;5.53;3.40;;;18.60;47.50;;;;;;5010403;28;20226;-42
2022/10/02 07:46:31;;;;;;;9.35;3.85;;;18.70;47.50;;;;;;5031288;28;20228;-41
2022/10/02 07:49:24;;;;;;;6.45;3.03;;;18.70;47.00;;;;;;5031829;28;20166;-42
2022/10/02 07:52:06;;;;;;;5.72;3.25;;;18.80;46.10;;;;;;5031579;28;20248;-42
2022/10/02 07:55:03;;;;;;;4.82;3.58;;;18.80;45.80;;;;;;5031598;28;20196;-42
2022/10/02 07:57:48;;;;;;;5.45;3.13;;;18.90;46.50;;;;;;5031494;28;20170;-42
2022/10/02 08:00:21;;;;;;;6.32;2.95;;;19.00;46.30;;;;;;5031645;28;20150;-42
2022/10/02 08:03:11;;;;;;;8.07;3.28;;;19.10;46.20;;;;;;5031804;28;20229;-42
2022/10/02 08:05:48;;;;;;;4.40;2.85;;;19.20;46.10;;;;;;5011643;28;20535;-42
2022/10/02 08:08:24;;;;;;;5.05;3.78;;;19.30;46.20;;;;;;5031572;28;20165;-42
2022/10/02 08:11:11;;;;;;;4.13;2.28;;;19.40;46.50;;;;;;5031499;28;20173;-42
2022/10/02 08:14:10;;;;;;;5.50;3.00;;;19.60;46.10;;;;;;5031363;28;20684;-42
2022/10/02 08:16:42;;;;;;;6.15;2.58;;;19.70;45.80;;;;;;5010064;28;20190;-42
2022/10/02 08:19:14;;;;;;;6.68;3.60;;;19.80;45.10;;;;;;5033484;28;20602;-42
2022/10/02 08:21:45;;;;;;;4.32;3.53;;;19.90;44.70;;;;;;5032364;28;20150;-42
2022/10/02 08:24:16;;;;;;;5.40;3.35;;;20.00;44.90;;;;;;5033943;28;20206;-42
2022/10/02 08:26:59;;;;;;;7.68;3.33;;;20.10;45.10;;;;;;5033295;28;20170;-42
2022/10/02 08:29:51;;;;;;;13.30;2.90;;;20.20;44.80;;;;;;5035241;28;20511;-42
2022/10/02 08:32:16;;;;;;;5.63;2.58;;;20.30;44.30;;;;;;5034885;28;20189;-42
2022/10/02 08:34:43;;;;;;;5.63;3.00;;;20.10;43.20;;;;;;5034779;28;20194;-42
2022/10/02 08:37:30;;;;;;;11.63;3.85;;;20.00;42.80;;;;;;5034415;28;20174;-42
2022/10/02 08:39:55;;;;;;;7.72;3.70;;;20.00;43.10;;;;;;5034694;28;20622;-42
2022/10/02 08:42:57;;;;;;;8.03;2.63;;;20.00;43.90;;;;;;5034566;28;20194;-42
2022/10/02 08:45:42;;;;;;;5.30;2.95;;;20.00;44.00;;;;;;5034640;28;20209;-43
2022/10/02 08:48:26;;;;;;;7.03;3.20;;;20.10;44.30;;;;;;5034494;28;20707;-42
2022/10/02 08:50:54;;;;;;;7.57;2.88;;;20.10;43.70;;;;;;5034563;28;20162;-42
2022/10/02 08:53:20;;;;;;;5.20;3.33;;;20.20;43.40;;;;;;5034413;28;20170;-42
2022/10/02 08:56:13;;;;;;;9.55;2.80;;;20.30;43.80;;;;;;5033962;28;20229;-42
2022/10/02 08:59:17;;;;;;;10.82;2.78;;;20.30;42.20;;;;;;5034357;28;20517;-42
2022/10/02 09:02:02;;;;;;;5.50;2.33;;;20.20;40.90;;;;;;5034274;28;20185;-42
2022/10/02 09:05:08;;;;;;;9.75;3.60;;;20.00;41.70;;;;;;5034150;28;20709;-42
2022/10/02 09:08:11;;;;;;;8.23;3.33;;;20.00;42.00;;;;;;5033450;28;20641;-43
2022/10/02 09:11:14;;;;;;;7.13;3.90;;;20.00;43.20;;;;;;5034098;28;20649;-42
2022/10/02 09:14:01;;;;;;;5.75;3.08;;;20.10;43.30;;;;;;5034028;28;20201;-43
2022/10/02 09:16:38;;;;;;;10.98;3.50;;;20.20;43.50;;;;;;5033546;28;20170;-43
2022/10/02 09:19:18;;;;;;;6.38;2.75;;;20.20;42.70;;;;;;5034126;28;20185;-42
2022/10/02 09:21:59;;;;;;;5.75;2.80;;;20.30;42.30;;;;;;5034033;28;20147;-42
2022/10/02 09:24:48;;;;;;;7.07;3.00;;;20.30;41.90;;;;;;5033897;28;20202;-42
2022/10/02 09:27:54;;;;;;;5.43;2.50;;;20.20;41.40;;;;;;5033385;28;20534;-43
2022/10/02 09:30:57;;;;;;;3.42;2.10;;;20.20;41.70;;;;;;5033766;28;20170;-42
2022/10/02 09:33:23;;;;;;;5.22;2.25;;;20.20;42.00;;;;;;5033600;28;20181;-43
2022/10/02 09:36:23;;;;;;;6.80;2.47;;;20.20;42.40;;;;;;5032073;28;20295;-43
2022/10/02 09:38:49;;;;;;;3.90;2.05;;;20.40;41.90;;;;;;5033587;28;20464;-43
2022/10/02 09:41:48;;;;;;;4.60;2.17;;;20.40;41.50;;;;;;5033632;28;20277;-43
2022/10/02 09:44:23;;;;;;;4.03;2.17;;;20.60;41.70;;;;;;5031991;28;20769;-43
2022/10/02 09:47:19;;;;;;;4.50;2.67;;;20.70;41.00;;;;;;5032909;28;20223;-43
2022/10/02 09:50:22;;;;;;;8.48;3.25;;;20.60;41.00;;;;;;5033389;28;20189;-43
2022/10/02 09:53:12;;;;;;;6.03;2.35;;;20.60;41.50;;;;;;5042807;22;20178;-43
2022/10/02 09:55:48;;;;;;;6.47;2.30;;;20.50;40.90;;;;;;5004570;28;20179;-42
2022/10/02 09:58:55;;;;;;;5.38;2.33;;;20.50;41.00;;;;;;5013614;28;20405;-43
2022/10/02 10:01:46;;;;;;;8.88;2.85;;;20.40;40.80;;;;;;4998140;28;20185;-43
2022/10/02 10:04:45;;;;;;;3.25;2.00;;;20.40;41.50;;;;;;5013211;28;20345;-43
2022/10/02 10:07:33;;;;;;;3.97;1.77;;;20.40;41.90;;;;;;5012975;28;20232;-43
2022/10/02 10:10:20;;;;;;;8.32;2.38;;;20.60;42.40;;;;;;5013284;28;20526;-43
2022/10/02 10:13:21;;;;;;;3.90;2.72;;;20.60;42.60;;;;;;5013363;28;20210;-43
2022/10/02 10:16:18;;;;;;;5.13;2.17;;;20.80;43.00;;;;;;4961539;28;20684;-43
2022/10/02 10:19:08;;;;;;;5.53;2.53;;;21.00;42.70;;;;;;5013138;28;20175;-43
2022/10/02 10:21:49;;;;;;;6.10;2.63;;;21.20;43.30;;;;;;5013032;28;20414;-43
2022/10/02 10:24:29;;;;;;;4.33;2.53;;;21.40;42.80;;;;;;5012846;28;20500;-43
2022/10/02 10:27:20;;;;;;;7.40;2.90;;;21.50;42.50;;;;;;5012382;28;20433;-43
2022/10/02 10:30:28;;;;;;;5.37;2.33;;;21.50;42.10;;;;;;5012944;28;20390;-43
2022/10/02 10:33:33;;;;;;;6.43;2.20;;;21.30;40.40;;;;;;5004675;28;20516;-43
2022/10/02 10:38:31;;;;;;;6.50;3.20;;;21.30;41.50;;;;;;5012250;28;20417;-43
2022/10/02 10:39:19;;;;;;;4.90;2.20;;;21.20;41.50;;;;;;5012538;28;20413;-43
2022/10/02 10:41:45;;;;;;;2.63;2.43;;;21.30;42.00;;;;;;4984768;28;20773;-43
2022/10/02 10:44:24;;;;;;;4.77;2.77;;;21.20;41.80;;;;;;5012995;28;20465;-43
2022/10/02 10:46:58;;;;;;;4.70;2.10;;;21.30;42.60;;;;;;5011848;28;20175;-43
2022/10/02 10:50:01;;;;;;;5.30;2.03;;;21.30;42.70;;;;;;5012765;28;20485;-43
2022/10/02 10:52:53;;;;;;;4.63;2.83;;;21.40;42.90;;;;;;5012593;28;20901;-43
2022/10/02 10:55:50;;;;;;;3.60;1.93;;;21.30;39.20;;;;;;5012425;28;20488;-43
2022/10/02 10:58:33;;;;;;;8.00;2.57;;;21.30;39.10;;;;;;5012566;28;20889;-43
2022/10/02 11:01:06;;;;;;;6.60;2.87;;;21.20;39.70;;;;;;5012359;28;20401;-43
2022/10/02 11:04:25;;;;;;;4.50;2.40;;;21.10;40.50;;;;;;5011069;28;20467;-43
2022/10/02 11:07:00;;;;;;;7.03;2.73;;;21.10;39.90;;;;;;4951139;28;20420;-43
2022/10/02 11:09:56;;;;;;;7.37;2.90;;;21.00;41.00;;;;;;4951757;29;20780;-43
2022/10/02 11:12:21;;;;;;;4.10;2.27;;;21.00;41.30;;;;;;4951781;29;20421;-43
2022/10/02 11:15:30;;;;;;;3.27;2.33;;;21.00;41.70;;;;;;4951633;28;20456;-43
2022/10/02 11:18:05;;;;;;;7.40;2.30;;;21.00;41.70;;;;;;4951687;29;20191;-44
2022/10/02 11:20:58;;;;;;;4.25;2.05;;;21.10;41.80;;;;;;4952064;29;20784;-43
2022/10/02 11:23:47;;;;;;;5.80;2.40;;;21.10;42.40;;;;;;4952632;29;20212;-43
2022/10/02 11:26:34;;;;;;;4.50;2.67;;;21.00;40.70;;;;;;4951302;29;20173;-43
2022/10/02 11:29:21;;;;;;;4.93;3.00;;;21.00;40.60;;;;;;4951589;28;20499;-43
2022/10/02 11:32:04;;;;;;;5.80;2.67;;;21.00;40.20;;;;;;4951527;29;20839;-43
2022/10/02 11:34:47;;;;;;;3.77;2.10;;;20.90;40.30;;;;;;4951495;29;20443;-43
2022/10/02 11:37:50;;;;;;;3.53;1.83;;;20.80;40.60;;;;;;4951025;29;20415;-43
2022/10/02 11:40:54;;;;;;;3.90;2.27;;;20.80;40.20;;;;;;4974729;28;20418;-43
2022/10/02 11:43:40;;;;;;;3.10;1.67;;;20.80;41.40;;;;;;5001085;28;20548;-43
2022/10/02 11:46:21;;;;;;;3.25;1.90;;;20.80;40.90;;;;;;5011459;28;20475;-43
2022/10/02 11:49:19;;;;;;;4.45;2.78;;;20.70;40.90;;;;;;5012061;28;20178;-43
2022/10/02 11:52:04;;;;;;;3.23;1.97;;;20.80;41.40;;;;;;5012053;28;20183;-43
2022/10/02 11:54:55;;;;;;;5.97;2.17;;;20.90;40.80;;;;;;5011840;28;20553;-44
2022/10/02 11:57:31;;;;;;;2.77;1.93;;;21.00;40.20;;;;;;5011390;28;20425;-43
2022/10/02 12:00:13;;;;;;;3.80;2.23;;;21.10;40.80;;;;;;5015431;28;20481;-43
2022/10/02 12:02:55;;;;;;;2.70;1.60;;;21.20;40.30;;;;;;5015363;28;20464;-43
2022/10/02 12:05:52;;;;;;;2.90;1.50;;;21.20;40.20;;;;;;5015622;28;20445;-43
2022/10/02 12:08:54;;;;;;;5.70;1.80;;;21.20;40.80;;;;;;5015415;28;20402;-43
2022/10/02 12:11:52;;;;;;;3.63;2.07;;;21.30;39.30;;;;;;5015444;28;20860;-43
2022/10/02 12:15:00;;;;;;;2.60;2.33;;;21.50;41.00;;;;;;5015358;28;20417;-43
2022/10/02 12:17:38;;;;;;;4.93;2.67;;;21.80;40.70;;;;;;4989260;28;20421;-43
2022/10/02 12:30:21;;;;;;;3.43;1.60;;;21.80;39.30;;;;;;5015249;28;20485;-43
2022/10/02 12:32:57;;;;;;;4.27;1.93;;;22.00;38.70;;;;;;4954340;29;20931;-43
2022/10/02 12:36:08;;;;;;;3.10;1.83;;;22.00;39.80;;;;;;4954230;29;20771;-43
2022/10/02 12:39:03;;;;;;;4.13;1.50;;;22.10;39.00;;;;;;4953966;29;20507;-43
2022/10/02 12:41:42;;;;;;;5.10;1.40;;;22.20;38.30;;;;;;4954152;29;20416;-43
2022/10/02 12:44:38;;;;;;;4.07;1.43;;;22.10;37.00;;;;;;4954077;29;20563;-43
2022/10/02 12:47:25;;;;;;;4.57;1.47;;;21.90;38.20;;;;;;4953590;29;20459;-44
2022/10/02 12:50:15;;;;;;;2.33;1.47;;;21.80;38.40;;;;;;4944518;28;20420;-43
2022/10/02 12:52:43;;;;;;;7.70;1.90;;;21.80;38.60;;;;;;4953833;29;20838;-43
2022/10/02 12:55:33;;;;;;;4.60;1.70;;;21.80;39.10;;;;;;4953867;28;20464;-43
2022/10/02 12:58:19;;;;;;;3.57;1.67;;;21.90;39.00;;;;;;4954041;29;20580;-43
2022/10/02 13:01:06;;;;;;;4.27;2.30;;;21.90;39.70;;;;;;4953994;29;20839;-44
2022/10/02 13:03:50;;;;;;;4.30;2.00;;;22.00;39.80;;;;;;4984229;28;20461;-44
2022/10/02 13:06:45;;;;;;;4.97;2.20;;;21.90;39.10;;;;;;5013910;28;20397;-44
2022/10/02 13:09:42;;;;;;;3.80;2.20;;;22.00;39.50;;;;;;5014325;28;21061;-43
2022/10/02 13:12:07;;;;;;;2.97;1.80;;;22.10;39.90;;;;;;5014268;28;20401;-43
2022/10/02 13:14:51;;;;;;;2.87;1.70;;;22.00;38.60;;;;;;5014354;28;20755;-43
2022/10/02 13:17:38;;;;;;;7.90;2.10;;;22.00;38.90;;;;;;5013747;28;20657;-43
2022/10/02 13:20:28;;;;;;;2.40;1.93;;;22.10;39.20;;;;;;5014578;28;20742;-43
2022/10/02 13:23:17;;;;;;;4.10;3.03;;;22.10;39.70;;;;;;5014175;28;20828;-43
2022/10/02 13:26:12;;;;;;;6.70;2.43;;;22.20;39.50;;;;;;5013887;28;20406;-43
2022/10/02 13:28:52;;;;;;;3.67;2.37;;;22.30;39.30;;;;;;4997819;28;20785;-44
2022/10/02 13:31:44;;;;;;;4.70;1.97;;;22.10;38.80;;;;;;5013972;28;20929;-43
2022/10/02 13:34:42;;;;;;;4.80;2.50;;;22.30;39.70;;;;;;5013912;28;20413;-44
2022/10/02 13:37:36;;;;;;;7.33;2.50;;;22.50;38.90;;;;;;5012748;28;20417;-44
2022/10/02 13:40:14;;;;;;;8.00;1.87;;;22.40;37.90;;;;;;5013845;28;20394;-44
2022/10/02 13:43:13;;;;;;;4.60;2.10;;;22.30;38.70;;;;;;5013645;28;20452;-43
2022/10/02 13:46:12;;;;;;;6.83;2.30;;;22.30;38.90;;;;;;5013117;28;20389;-44
2022/10/02 13:48:59;;;;;;;3.20;2.20;;;22.20;38.70;;;;;;5013686;28;20948;-43
2022/10/02 13:51:52;;;;;;;5.50;3.07;;;22.20;38.90;;;;;;5013620;28;20413;-43
2022/10/02 13:54:30;;;;;;;2.50;1.90;;;22.20;39.80;;;;;;5013291;28;20465;-44
2022/10/02 13:57:10;;;;;;;4.07;2.10;;;22.20;39.10;;;;;;4995575;28;20413;-43
2022/10/02 13:59:44;;;;;;;3.90;3.03;;;22.30;38.00;;;;;;4995751;28;20421;-44
2022/10/02 14:02:10;;;;;;;4.37;2.40;;;22.30;38.60;;;;;;5013552;28;20386;-44
2022/10/02 14:04:49;;;;;;;4.03;2.47;;;22.30;38.10;;;;;;5013297;28;20943;-44
2022/10/02 14:07:29;;;;;;;2.80;2.03;;;22.30;38.40;;;;;;5012774;28;20162;-44
2022/10/02 14:10:01;;;;;;;5.07;2.87;;;22.10;38.20;;;;;;5013371;28;20394;-43
2022/10/02 14:12:45;;;;;;;4.73;2.50;;;22.10;39.40;;;;;;5013295;28;20404;-44